createdAt,value
2018-05-29T00:01:56.112Z,22.83
2018-05-29T00:04:25.005Z,20.80
2018-05-29T00:06:53.851Z,21.67
2018-05-29T00:09:23.478Z,22.87
2018-05-29T00:11:52.340Z,20.23
2018-05-29T00:14:22.014Z,23.13
2018-05-29T00:16:50.904Z,21.70
2018-05-29T00:19:19.754Z,22.57
2018-05-29T00:21:48.619Z,22.30
2018-05-29T00:24:18.332Z,22.67
2018-05-29T00:26:48.017Z,23.07
2018-05-29T00:29:16.929Z,22.73
2018-05-29T00:31:46.587Z,24.23
2018-05-29T00:34:15.484Z,22.27
2018-05-29T00:36:44.612Z,22.90
2018-05-29T00:39:14.206Z,22.60
2018-05-29T00:41:43.059Z,24.03
2018-05-29T00:44:11.855Z,22.73
2018-05-29T00:46:41.471Z,23.80
2018-05-29T00:49:10.755Z,22.13
2018-05-29T00:51:39.622Z,23.40
2018-05-29T00:54:08.528Z,22.10
2018-05-29T00:56:37.395Z,23.40
2018-05-29T00:59:06.300Z,22.03
2018-05-29T01:01:35.207Z,22.40
2018-05-29T01:04:04.360Z,22.13
2018-05-29T01:06:33.939Z,22.27
2018-05-29T01:09:02.897Z,22.50
2018-05-29T01:11:31.812Z,22.13
2018-05-29T01:14:00.985Z,21.27
2018-05-29T01:16:30.014Z,22.03
2018-05-29T01:18:58.903Z,22.40
2018-05-29T01:21:27.783Z,20.90
2018-05-29T01:23:56.707Z,20.53
2018-05-29T01:26:25.587Z,21.17
2018-05-29T01:28:54.383Z,21.13
2018-05-29T01:31:23.493Z,21.13
2018-05-29T01:33:53.075Z,21.90
2018-05-29T01:36:22.166Z,22.30
2018-05-29T01:38:51.679Z,20.60
2018-05-29T01:41:20.537Z,23.20
2018-05-29T01:43:49.419Z,22.37
2018-05-29T01:46:18.234Z,20.90
2018-05-29T01:48:47.117Z,21.10
2018-05-29T01:51:20.214Z,22.90
2018-05-29T01:53:49.021Z,22.30
2018-05-29T01:56:18.243Z,23.93
2018-05-29T01:58:47.100Z,20.50
2018-05-29T02:01:15.965Z,22.20
2018-05-29T02:03:44.779Z,21.37
2018-05-29T02:06:13.610Z,21.10
2018-05-29T02:08:42.654Z,20.37
2018-05-29T02:11:11.563Z,21.30
2018-05-29T02:13:40.401Z,21.73
2018-05-29T02:16:09.290Z,20.97
2018-05-29T02:18:38.165Z,21.70
2018-05-29T02:21:07.769Z,22.93
2018-05-29T02:23:37.331Z,21.30
2018-05-29T02:26:06.907Z,20.93
2018-05-29T02:28:36.519Z,19.80
2018-05-29T02:31:05.417Z,23.43
2018-05-29T02:33:34.291Z,21.40
2018-05-29T02:36:03.289Z,19.70
2018-05-29T02:38:32.122Z,21.10
2018-05-29T02:41:00.997Z,20.97
2018-05-29T02:43:29.864Z,21.00
2018-05-29T02:45:58.753Z,20.50
2018-05-29T02:48:27.853Z,21.43
2018-05-29T02:50:56.677Z,20.50
2018-05-29T02:53:25.603Z,21.67
2018-05-29T02:55:55.154Z,20.50
2018-05-29T02:58:24.018Z,21.60
2018-05-29T03:00:52.865Z,19.80
2018-05-29T03:03:21.766Z,20.67
2018-05-29T03:05:51.370Z,20.77
2018-05-29T03:08:21.122Z,20.17
2018-05-29T03:10:49.926Z,20.30
2018-05-29T03:13:23.455Z,18.17
2018-05-29T03:15:52.249Z,20.90
2018-05-29T03:18:21.837Z,19.87
2018-05-29T03:20:50.664Z,20.53
2018-05-29T03:23:20.256Z,19.93
2018-05-29T03:25:49.118Z,19.20
2018-05-29T03:28:17.978Z,20.17
2018-05-29T03:30:46.824Z,20.37
2018-05-29T03:33:16.388Z,21.00
2018-05-29T03:35:45.281Z,21.50
2018-05-29T03:38:14.118Z,21.47
2018-05-29T03:40:43.825Z,20.80
2018-05-29T03:43:13.471Z,20.50
2018-05-29T03:45:43.030Z,21.40
2018-05-29T03:48:11.841Z,22.43
2018-05-29T03:50:41.520Z,22.13
2018-05-29T03:53:10.390Z,20.67
2018-05-29T03:55:39.255Z,20.97
2018-05-29T03:58:08.202Z,21.10
2018-05-29T04:00:37.066Z,20.20
2018-05-29T04:03:05.942Z,20.27
2018-05-29T04:05:34.814Z,20.30
2018-05-29T04:08:03.697Z,20.40
2018-05-29T04:10:32.550Z,21.50
2018-05-29T04:13:01.640Z,21.70
2018-05-29T04:15:30.507Z,20.57
2018-05-29T04:17:59.662Z,20.77
2018-05-29T04:20:28.512Z,20.90
2018-05-29T04:22:57.391Z,22.70
2018-05-29T04:25:27.194Z,22.33
2018-05-29T04:27:56.051Z,23.10
2018-05-29T04:30:24.876Z,23.23
2018-05-29T04:32:53.714Z,24.50
2018-05-29T04:35:23.299Z,24.30
2018-05-29T04:37:52.327Z,24.00
2018-05-29T04:40:21.225Z,23.63
2018-05-29T04:42:50.121Z,21.80
2018-05-29T04:45:20.066Z,20.57
2018-05-29T04:47:48.967Z,21.70
2018-05-29T04:50:17.810Z,20.93
2018-05-29T04:52:46.653Z,20.90
2018-05-29T04:55:16.021Z,19.93
2018-05-29T04:57:45.968Z,21.80
2018-05-29T05:02:58.026Z,20.87
2018-05-29T05:05:26.931Z,38.43
2018-05-29T05:07:55.774Z,22.33
2018-05-29T05:10:24.657Z,20.60
2018-05-29T05:12:53.495Z,20.23
2018-05-29T05:15:22.323Z,18.70
2018-05-29T05:17:51.290Z,22.13
2018-05-29T05:20:20.161Z,23.40
2018-05-29T05:22:49.164Z,22.90
2018-05-29T05:25:18.006Z,22.33
2018-05-29T05:27:56.224Z,23.40
2018-05-29T05:30:25.437Z,23.30
2018-05-29T05:32:55.031Z,23.57
2018-05-29T05:35:24.194Z,21.60
2018-05-29T05:37:53.121Z,21.47
2018-05-29T05:40:22.116Z,21.27
2018-05-29T05:42:51.964Z,20.60
2018-05-29T05:45:20.842Z,20.67
2018-05-29T05:47:49.832Z,20.63
2018-05-29T05:50:19.409Z,20.87
2018-05-29T05:52:48.326Z,20.20
2018-05-29T05:55:17.343Z,22.27
2018-05-29T05:58:48.735Z,23.00
2018-05-29T06:01:17.659Z,21.60
2018-05-29T06:03:47.314Z,20.90
2018-05-29T06:06:26.182Z,20.33
2018-05-29T06:08:55.925Z,20.87
2018-05-29T06:11:27.270Z,19.07
2018-05-29T06:13:56.253Z,19.37
2018-05-29T06:16:25.211Z,18.60
2018-05-29T06:18:54.534Z,20.80
2018-05-29T06:21:24.258Z,19.57
2018-05-29T06:23:53.951Z,21.10
2018-05-29T06:26:23.605Z,21.60
2018-05-29T06:28:53.332Z,20.33
2018-05-29T06:31:25.667Z,20.37
2018-05-29T06:33:54.641Z,19.13
2018-05-29T06:36:24.331Z,21.57
2018-05-29T06:38:53.457Z,20.17
2018-05-29T06:41:26.861Z,19.33
2018-05-29T06:43:55.914Z,18.90
2018-05-29T06:46:24.906Z,20.00
2018-05-29T06:48:53.895Z,18.40
2018-05-29T06:51:26.941Z,18.57
2018-05-29T06:53:56.639Z,20.00
2018-05-29T06:56:26.561Z,20.13
2018-05-29T06:58:55.649Z,18.03
2018-05-29T07:01:24.539Z,19.83
2018-05-29T07:03:54.431Z,19.03
2018-05-29T07:06:26.893Z,19.40
2018-05-29T07:08:55.800Z,21.10
2018-05-29T07:11:25.664Z,19.17
2018-05-29T07:13:55.558Z,16.47
2018-05-29T07:16:24.525Z,19.07
2018-05-29T07:18:54.215Z,19.10
2018-05-29T07:21:23.628Z,19.80
2018-05-29T07:23:53.346Z,20.80
2018-05-29T07:26:23.474Z,21.23
2018-05-29T07:28:52.483Z,21.43
2018-05-29T07:31:27.444Z,22.53
2018-05-29T07:33:56.823Z,21.57
2018-05-29T07:36:26.230Z,21.20
2018-05-29T07:38:56.025Z,23.13
2018-05-29T07:41:25.360Z,24.53
2018-05-29T07:43:55.066Z,21.73
2018-05-29T07:46:25.510Z,19.87
2018-05-29T07:48:55.397Z,23.33
2018-05-29T07:51:24.261Z,20.63
2018-05-29T07:53:56.995Z,22.37
2018-05-29T07:56:26.639Z,22.83
2018-05-29T07:58:56.528Z,24.03
2018-05-29T08:01:25.459Z,24.37
2018-05-29T08:03:55.123Z,23.73
2018-05-29T08:06:29.125Z,24.77
2018-05-29T08:08:58.059Z,25.37
2018-05-29T08:11:27.845Z,21.73
2018-05-29T08:13:58.725Z,22.57
2018-05-29T08:16:28.446Z,22.97
2018-05-29T08:18:58.199Z,23.40
2018-05-29T08:21:27.118Z,19.37
2018-05-29T08:23:56.697Z,21.67
2018-05-29T08:26:25.613Z,22.00
2018-05-29T08:28:55.391Z,20.83
2018-05-29T08:31:24.450Z,24.23
2018-05-29T08:33:53.572Z,22.10
2018-05-29T08:36:25.284Z,20.27
2018-05-29T08:38:54.347Z,22.73
2018-05-29T08:41:23.361Z,20.70
2018-05-29T08:43:53.107Z,20.53
2018-05-29T08:46:22.115Z,19.73
2018-05-29T08:48:51.863Z,21.00
2018-05-29T08:51:20.907Z,20.77
2018-05-29T08:53:50.282Z,20.00
2018-05-29T08:56:20.349Z,19.20
2018-05-29T08:58:49.297Z,20.60
2018-05-29T09:01:19.289Z,20.10
2018-05-29T09:03:48.271Z,20.80
2018-05-29T09:06:18.010Z,20.63
2018-05-29T09:09:03.185Z,18.40
2018-05-29T09:11:38.167Z,17.93
2018-05-29T09:14:07.111Z,18.27
2018-05-29T09:16:46.468Z,18.13
2018-05-29T09:19:15.503Z,18.83
2018-05-29T09:21:44.680Z,20.30
2018-05-29T09:24:13.694Z,18.20
2018-05-29T09:26:42.816Z,17.57
2018-05-29T09:29:12.416Z,17.77
2018-05-29T09:31:41.530Z,18.00
2018-05-29T09:34:11.452Z,18.33
2018-05-29T09:36:41.193Z,18.47
2018-05-29T09:39:10.307Z,19.93
2018-05-29T09:41:40.447Z,20.23
2018-05-29T09:44:09.387Z,18.80
2018-05-29T09:46:39.274Z,19.40
2018-05-29T09:49:09.181Z,17.80
2018-05-29T09:51:39.783Z,19.23
2018-05-29T09:54:09.415Z,19.03
2018-05-29T09:56:40.124Z,17.53
2018-05-29T10:01:52.996Z,18.70
2018-05-29T10:04:22.150Z,19.50
2018-05-29T10:06:51.229Z,18.33
2018-05-29T10:09:21.010Z,18.57
2018-05-29T10:11:50.791Z,17.80
2018-05-29T10:14:19.908Z,16.27
2018-05-29T10:16:49.569Z,16.33
2018-05-29T10:19:19.076Z,15.63
2018-05-29T10:21:48.882Z,15.93
2018-05-29T10:24:18.529Z,17.43
2018-05-29T10:26:47.524Z,17.33
2018-05-29T10:29:19.919Z,18.00
2018-05-29T10:31:51.460Z,17.67
2018-05-29T10:35:25.912Z,17.07
2018-05-29T10:37:55.712Z,17.13
2018-05-29T10:40:25.327Z,17.13
2018-05-29T10:42:54.897Z,18.07
2018-05-29T10:45:25.041Z,16.80
2018-05-29T10:47:54.588Z,17.97
2018-05-29T10:50:24.477Z,16.50
2018-05-29T10:52:53.564Z,16.13
2018-05-29T10:55:22.881Z,16.70
2018-05-29T10:57:53.851Z,18.37
2018-05-29T11:00:23.681Z,17.80
2018-05-29T11:02:52.957Z,17.57
2018-05-29T11:05:22.026Z,14.33
2018-05-29T11:07:54.555Z,16.57
2018-05-29T11:10:25.016Z,17.13
2018-05-29T11:12:55.257Z,18.97
2018-05-29T11:15:24.531Z,16.47
2018-05-29T11:17:55.316Z,17.60
2018-05-29T11:20:25.061Z,15.80
2018-05-29T11:22:54.842Z,18.83
2018-05-29T11:25:24.801Z,17.43
2018-05-29T11:27:54.076Z,18.73
2018-05-29T11:30:23.454Z,16.60
2018-05-29T11:32:58.637Z,17.40
2018-05-29T11:35:28.672Z,16.97
2018-05-29T11:41:30.925Z,16.00
2018-05-29T11:44:01.452Z,18.50
2018-05-29T11:46:30.350Z,16.17
2018-05-29T11:48:59.609Z,16.30
2018-05-29T11:51:29.462Z,18.10
2018-05-29T11:53:59.338Z,17.80
2018-05-29T11:56:30.620Z,18.13
2018-05-29T11:59:00.584Z,16.40
2018-05-29T12:01:29.868Z,17.57
2018-05-29T12:03:59.838Z,18.07
2018-05-29T12:06:29.382Z,18.30
2018-05-29T12:08:58.470Z,17.03
2018-05-29T12:11:27.402Z,15.73
2018-05-29T12:13:56.587Z,17.00
2018-05-29T12:16:26.912Z,17.17
2018-05-29T12:18:57.533Z,18.10
2018-05-29T12:21:27.177Z,16.73
2018-05-29T12:23:56.690Z,17.73
2018-05-29T12:26:26.258Z,16.93
2018-05-29T12:28:55.381Z,18.10
2018-05-29T12:31:24.566Z,19.63
2018-05-29T12:33:53.888Z,17.83
2018-05-29T12:36:27.368Z,18.63
2018-05-29T12:38:58.086Z,17.97
2018-05-29T12:41:28.108Z,18.43
2018-05-29T12:43:59.648Z,19.27
2018-05-29T12:46:29.172Z,18.97
2018-05-29T12:48:58.219Z,18.03
2018-05-29T12:51:28.258Z,17.03
2018-05-29T12:53:58.497Z,16.00
2018-05-29T12:56:28.122Z,17.47
2018-05-29T12:58:57.199Z,17.77
2018-05-29T13:01:26.893Z,17.07
2018-05-29T13:03:56.656Z,17.23
2018-05-29T13:06:25.771Z,18.10
2018-05-29T13:08:55.930Z,16.97
2018-05-29T13:11:25.266Z,17.60
2018-05-29T13:13:55.409Z,17.53
2018-05-29T13:16:29.432Z,16.37
2018-05-29T13:18:59.774Z,17.30
2018-05-29T13:21:30.225Z,17.40
2018-05-29T13:23:59.213Z,16.87
2018-05-29T13:26:31.491Z,16.80
2018-05-29T13:29:01.871Z,17.50
2018-05-29T13:31:30.975Z,18.23
2018-05-29T13:34:09.969Z,17.37
2018-05-29T13:36:40.920Z,17.90
2018-05-29T13:39:11.054Z,17.90
2018-05-29T13:41:40.042Z,16.80
2018-05-29T13:44:09.002Z,15.33
2018-05-29T13:46:38.123Z,16.67
2018-05-29T13:49:07.297Z,19.53
2018-05-29T13:51:37.115Z,17.83
2018-05-29T13:54:06.331Z,17.53
2018-05-29T13:56:36.209Z,16.50
2018-05-29T13:59:07.012Z,17.67
2018-05-29T14:01:37.128Z,16.50
2018-05-29T14:04:06.219Z,17.63
2018-05-29T14:06:36.380Z,18.83
2018-05-29T14:09:07.893Z,18.23
2018-05-29T14:11:37.977Z,18.83
2018-05-29T14:14:06.974Z,18.17
2018-05-29T14:16:36.206Z,19.20
2018-05-29T14:19:08.641Z,18.93
2018-05-29T14:21:37.586Z,18.27
2018-05-29T14:24:08.567Z,19.70
2018-05-29T14:26:52.367Z,16.93
2018-05-29T14:29:21.849Z,18.27
2018-05-29T14:31:51.785Z,18.80
2018-05-29T14:34:21.248Z,18.70
2018-05-29T15:20:35.395Z,20.27
2018-05-29T15:23:04.698Z,19.10
2018-05-29T15:25:34.234Z,19.43
2018-05-29T15:28:04.473Z,17.83
2018-05-29T15:30:35.413Z,20.17
2018-05-29T15:33:05.476Z,20.73
2018-05-29T15:35:34.630Z,18.80
2018-05-29T15:38:03.880Z,19.23
2018-05-29T15:40:34.678Z,19.43
2018-05-29T15:43:04.963Z,19.90
2018-05-29T15:45:33.934Z,18.77
2018-05-29T15:48:04.615Z,20.00
2018-05-29T15:50:33.507Z,17.47
2018-05-29T15:53:03.418Z,20.63
2018-05-29T15:55:33.706Z,19.33
2018-05-29T15:58:03.648Z,19.57
2018-05-29T16:00:33.670Z,19.43
2018-05-29T16:03:03.650Z,19.23
2018-05-29T16:05:33.330Z,19.20
2018-05-29T16:08:12.208Z,19.30
2018-05-29T16:10:42.109Z,19.20
2018-05-29T16:13:13.663Z,19.57
2018-05-29T16:15:51.952Z,17.33
2018-05-29T16:18:21.056Z,20.40
2018-05-29T16:20:51.825Z,19.17
2018-05-29T16:23:22.494Z,19.70
2018-05-29T16:25:51.532Z,20.90
2018-05-29T16:28:21.474Z,19.23
2018-05-29T16:30:51.228Z,20.30
2018-05-29T16:33:26.670Z,20.77
2018-05-29T16:35:55.644Z,21.97
2018-05-29T16:38:25.345Z,21.53
2018-05-29T16:40:55.208Z,20.43
2018-05-29T16:43:25.652Z,21.53
2018-05-29T16:45:55.128Z,22.03
2018-05-29T16:48:24.225Z,21.47
2018-05-29T16:50:53.331Z,21.60
2018-05-29T16:53:22.349Z,19.47
2018-05-29T16:55:52.076Z,21.30
2018-05-29T16:58:21.169Z,22.40
2018-05-29T17:00:51.088Z,21.60
2018-05-29T17:03:19.993Z,21.30
2018-05-29T17:05:48.935Z,21.70
2018-05-29T17:08:17.887Z,20.83
2018-05-29T17:10:46.905Z,22.13
2018-05-29T17:13:16.851Z,23.87
2018-05-29T17:15:46.701Z,22.53
2018-05-29T17:18:15.645Z,21.13
2018-05-29T17:20:44.496Z,20.90
2018-05-29T17:23:13.777Z,22.53
2018-05-29T17:25:42.692Z,21.90
2018-05-29T17:28:12.961Z,22.27
2018-05-29T17:30:42.628Z,21.93
2018-05-29T17:33:11.623Z,21.07
2018-05-29T17:35:40.562Z,21.77
2018-05-29T17:38:14.983Z,21.80
2018-05-29T17:40:43.931Z,21.13
2018-05-29T17:46:44.582Z,24.70
2018-05-29T17:49:13.653Z,27.00
2018-05-29T17:51:42.559Z,27.70
2018-05-29T17:54:11.512Z,26.90
2018-05-29T17:56:42.618Z,28.17
2018-05-29T17:59:11.507Z,26.07
2018-05-29T18:01:42.220Z,25.70
2018-05-29T18:04:18.215Z,26.20
2018-05-29T18:06:48.007Z,26.07
2018-05-29T18:09:17.569Z,26.07
2018-05-29T18:11:52.324Z,23.80
2018-05-29T18:14:21.288Z,25.50
2018-05-29T18:16:51.531Z,25.40
2018-05-29T18:19:23.323Z,24.73
2018-05-29T18:21:52.261Z,23.17
2018-05-29T18:24:21.325Z,24.50
2018-05-29T18:26:50.268Z,26.67
2018-05-29T18:29:25.045Z,26.90
2018-05-29T18:31:54.148Z,26.17
2018-05-29T18:34:24.943Z,24.50
2018-05-29T18:36:53.945Z,24.57
2018-05-29T18:39:23.109Z,24.23
2018-05-29T18:41:52.230Z,19.53
2018-05-29T18:44:21.353Z,20.53
2018-05-29T18:46:51.077Z,20.40
2018-05-29T18:49:20.867Z,19.70
2018-05-29T18:51:49.775Z,19.00
2018-05-29T18:54:20.151Z,19.07
2018-05-29T18:56:49.357Z,19.80
2018-05-29T18:59:18.294Z,21.70
2018-05-29T19:01:48.482Z,17.20
2018-05-29T19:04:17.484Z,17.03
2018-05-29T19:06:47.274Z,18.23
2018-05-29T19:09:16.216Z,16.53
2018-05-29T19:11:47.332Z,15.57
2018-05-29T19:14:17.124Z,17.10
2018-05-29T19:16:46.231Z,14.73
2018-05-29T19:19:15.202Z,14.60
2018-05-29T19:21:44.123Z,14.73
2018-05-29T19:24:16.264Z,15.80
2018-05-29T19:26:45.163Z,19.03
2018-05-29T19:29:14.035Z,21.83
2018-05-29T19:31:43.920Z,32.67
2018-05-29T19:34:13.665Z,35.53
2018-05-29T19:36:43.187Z,28.73
2018-05-29T19:39:12.471Z,33.30
2018-05-29T19:41:41.683Z,25.97
2018-05-29T19:44:10.641Z,38.37
2018-05-29T19:46:39.935Z,31.70
2018-05-29T19:49:09.828Z,45.90
2018-05-29T19:51:39.976Z,43.23
2018-05-29T19:54:09.054Z,45.43
2018-05-29T19:56:39.029Z,43.63
2018-05-29T19:59:08.491Z,60.90
2018-05-29T20:01:39.080Z,65.20
2018-05-29T20:04:09.197Z,44.10
2018-05-29T20:06:39.212Z,36.50
2018-05-29T20:09:08.201Z,42.97
2018-05-29T20:11:37.350Z,46.20
2018-05-29T20:14:06.284Z,47.70
2018-05-29T20:16:35.335Z,34.03
2018-05-29T20:19:05.493Z,36.20
2018-05-29T20:21:34.556Z,32.50
2018-05-29T20:24:03.848Z,35.10
2018-05-29T20:26:32.785Z,33.13
2018-05-29T20:29:02.539Z,36.33
2018-05-29T20:31:32.420Z,48.73
2018-05-29T20:34:02.216Z,55.50
2018-05-29T20:36:31.367Z,52.33
2018-05-29T20:39:01.907Z,52.47
2018-05-29T20:41:30.938Z,53.40
2018-05-29T20:44:01.690Z,50.00
2018-05-29T20:46:31.582Z,45.83
2018-05-29T20:49:01.300Z,40.50
2018-05-29T20:51:30.468Z,42.03
2018-05-29T20:53:59.822Z,39.30
2018-05-29T20:56:28.789Z,42.07
2018-05-29T20:58:57.767Z,35.20
2018-05-29T21:01:27.298Z,43.80
2018-05-29T21:03:56.434Z,44.43
2018-05-29T21:06:25.372Z,51.33
2018-05-29T21:08:54.232Z,47.90
2018-05-29T21:11:23.102Z,41.23
2018-05-29T21:13:53.199Z,51.50
2018-05-29T21:16:27.609Z,39.83
2018-05-29T21:18:56.732Z,44.77
2018-05-29T21:21:26.518Z,41.70
2018-05-29T21:23:55.514Z,49.40
2018-05-29T21:26:25.164Z,38.70
2018-05-29T21:28:54.055Z,44.77
2018-05-29T21:31:22.973Z,39.40
2018-05-29T21:33:51.795Z,41.07
2018-05-29T21:36:20.680Z,41.40
2018-05-29T21:38:49.553Z,41.17
2018-05-29T21:41:18.382Z,39.10
2018-05-29T21:43:47.977Z,34.43
2018-05-29T21:46:17.047Z,30.70
2018-05-29T21:48:46.176Z,34.23
2018-05-29T21:51:15.217Z,34.30
2018-05-29T21:53:44.351Z,41.30
2018-05-29T21:56:13.232Z,37.07
2018-05-29T21:58:42.462Z,32.17
2018-05-29T22:01:13.594Z,35.50
2018-05-29T22:03:42.551Z,34.00
2018-05-29T22:06:11.472Z,31.93
2018-05-29T22:08:40.664Z,35.67
2018-05-29T22:11:09.922Z,32.97
2018-05-29T22:13:40.493Z,37.30
2018-05-29T22:16:09.587Z,29.57
2018-05-29T22:18:45.253Z,32.67
2018-05-29T22:21:16.651Z,34.03
2018-05-29T22:23:46.123Z,36.10
2018-05-29T22:26:15.747Z,32.93
2018-05-29T22:28:44.622Z,35.10
2018-05-29T22:31:18.932Z,35.30
2018-05-29T22:33:48.650Z,39.10
2018-05-29T22:36:18.337Z,32.50
2018-05-29T22:39:01.923Z,37.20
2018-05-29T22:41:30.841Z,35.43
2018-05-29T22:43:59.738Z,34.87
2018-05-29T22:46:28.654Z,39.50
2018-05-29T22:48:57.585Z,34.10
2018-05-29T22:51:26.463Z,31.63
2018-05-29T22:53:55.346Z,33.03
2018-05-29T22:56:24.992Z,30.43
2018-05-29T22:58:53.881Z,27.93
2018-05-29T23:01:22.856Z,28.93
2018-05-29T23:03:52.704Z,26.43
2018-05-29T23:06:21.628Z,28.10
2018-05-29T23:08:50.901Z,26.30
2018-05-29T23:11:19.891Z,32.50
2018-05-29T23:13:48.805Z,27.10
2018-05-29T23:16:23.148Z,30.07
2018-05-29T23:18:52.817Z,25.90
2018-05-29T23:21:21.658Z,27.57
2018-05-29T23:23:50.559Z,28.73
2018-05-29T23:26:19.457Z,30.40
2018-05-29T23:28:48.364Z,28.80
2018-05-29T23:31:17.264Z,26.10
2018-05-29T23:33:46.184Z,25.07
2018-05-29T23:36:15.854Z,30.00
2018-05-29T23:38:45.094Z,25.47
2018-05-29T23:41:14.744Z,30.23
2018-05-29T23:43:43.671Z,33.63
2018-05-29T23:46:12.738Z,34.70
2018-05-29T23:48:41.580Z,32.37
2018-05-29T23:51:11.209Z,30.30
2018-05-29T23:53:40.177Z,32.70
2018-05-29T23:56:10.353Z,28.07
2018-05-29T23:58:39.282Z,35.37
